Chevery, Canada
Current Conditions -  °F | °C
As of 12:00 AM on Tuesday 23 Dec 2014 (Local Time) from CWDH Reporting Station
Overcast Overcast  
Wind Chill: 20°   Ceiling: 1800
Heat Index: 27°   Visibility: 9mi
Dew Point: 20°   Wind: 6mph
Humidity: 77%   Direction: 180°S
Pressure: 30.42"   Gusts: NA
Location:  50.47°N, 59.6°W
Report Text: CWDH 230400Z AUTO 18005KT 9SM OVC018 M03/M06 A3042 RMK SLP303 T10281064 WSI/SWOB
Loading
Personal Weather Stations






























Interactive Weather Map New forecast layout! Learn more

10-Day Weather Forecast

Advertisements
Track Severe Weather on mobile